Time;durP1;ratioP1;P1;durP2;ratioP2;P2;SDS_P1;SDS_P2;PMS_P1;PMS_P2;Temp;Humidity;BMP_temperature;BMP_pressure;BME280_temperature;BME280_humidity;BME280_pressure;Samples;Min_cycle;Max_cycle;Signal;HPM_P1;HPM_P2
2022/01/30 00:01:51;;;;;;;6.22;1.85;;;7.10;99.90;;;;;;5054151;28;20456;-60
2022/01/30 00:04:18;;;;;;;8.25;2.35;;;7.10;99.90;;;;;;5049042;28;20040;-59
2022/01/30 00:06:45;;;;;;;4.85;1.85;;;7.10;99.90;;;;;;5046975;28;20080;-60
2022/01/30 00:09:18;;;;;;;4.82;1.85;;;7.10;99.90;;;;;;5057711;28;20231;-60
2022/01/30 00:11:50;;;;;;;8.02;2.50;;;7.10;99.90;;;;;;5061343;28;20155;-59
2022/01/30 00:14:18;;;;;;;4.82;1.73;;;7.10;99.90;;;;;;5050754;28;20500;-61
2022/01/30 00:16:46;;;;;;;5.07;1.83;;;7.00;99.90;;;;;;5062817;28;20087;-60
2022/01/30 00:19:28;;;;;;;4.20;1.38;;;7.00;99.90;;;;;;5064011;28;20052;-60
2022/01/30 00:22:15;;;;;;;3.63;1.42;;;7.00;99.90;;;;;;5063723;28;20136;-59
2022/01/30 00:24:56;;;;;;;6.47;1.95;;;6.90;99.90;;;;;;5055155;28;20080;-58
2022/01/30 00:27:47;;;;;;;4.85;1.58;;;6.90;99.90;;;;;;5059915;28;20079;-59
2022/01/30 00:30:15;;;;;;;3.50;1.52;;;6.80;99.90;;;;;;5050637;28;20103;-59
2022/01/30 00:32:42;;;;;;;5.57;1.30;;;6.80;99.90;;;;;;5062999;28;20393;-59
2022/01/30 00:35:29;;;;;;;4.70;1.65;;;6.80;99.90;;;;;;5041836;28;20339;-59
2022/01/30 00:37:56;;;;;;;4.28;1.40;;;6.70;99.90;;;;;;5064540;28;20110;-60
2022/01/30 00:40:33;;;;;;;3.20;1.45;;;6.70;99.90;;;;;;5064725;28;20113;-59
2022/01/30 00:43:00;;;;;;;3.70;1.65;;;6.60;99.90;;;;;;5061165;28;20064;-59
2022/01/30 00:45:28;;;;;;;5.15;1.48;;;6.60;99.90;;;;;;5059070;28;20044;-59
2022/01/30 00:47:55;;;;;;;3.25;1.10;;;6.60;99.90;;;;;;5051876;28;20119;-59
2022/01/30 00:50:23;;;;;;;3.55;1.25;;;6.60;99.90;;;;;;5060064;28;20052;-59
2022/01/30 00:52:53;;;;;;;3.15;1.30;;;6.60;99.90;;;;;;5063178;28;20075;-60
2022/01/30 00:55:26;;;;;;;5.93;1.85;;;6.50;99.90;;;;;;5048687;28;20500;-60
2022/01/30 00:57:53;;;;;;;6.10;1.50;;;6.40;99.90;;;;;;5056975;28;20088;-59
2022/01/30 01:00:21;;;;;;;3.38;1.23;;;6.40;99.90;;;;;;5049106;28;20091;-60
2022/01/30 01:02:47;;;;;;;3.28;1.30;;;6.30;99.90;;;;;;5061216;28;20092;-60
2022/01/30 01:05:15;;;;;;;3.38;1.75;;;6.30;99.90;;;;;;5063856;28;20044;-60
2022/01/30 01:07:45;;;;;;;3.50;1.70;;;6.20;99.90;;;;;;5057472;28;20040;-60
2022/01/30 01:10:30;;;;;;;3.03;1.30;;;6.10;99.90;;;;;;5056864;28;20073;-60
2022/01/30 01:23:56;;;;;;;4.82;1.33;;;5.80;99.90;;;;;;5044394;28;20079;-60
2022/01/30 01:26:24;;;;;;;4.95;1.90;;;5.70;99.90;;;;;;5046693;28;20611;-60
2022/01/30 01:28:51;;;;;;;4.32;1.98;;;5.70;99.90;;;;;;5052929;28;20123;-60
2022/01/30 01:31:19;;;;;;;5.88;2.25;;;5.70;99.90;;;;;;5048016;28;20063;-60
2022/01/30 01:36:15;;;;;;;4.60;2.08;;;5.60;99.90;;;;;;5057715;28;20117;-60
2022/01/30 01:38:42;;;;;;;5.10;2.53;;;5.60;99.90;;;;;;5060905;28;20072;-60
2022/01/30 01:41:09;;;;;;;6.95;2.33;;;5.60;99.90;;;;;;5058153;28;20155;-60
2022/01/30 01:43:36;;;;;;;4.40;1.77;;;5.50;99.90;;;;;;5057056;28;20123;-60
2022/01/30 01:46:11;;;;;;;5.13;1.85;;;5.50;99.90;;;;;;5061298;28;20056;-61
2022/01/30 01:48:38;;;;;;;5.43;1.90;;;5.50;99.90;;;;;;5062775;28;20128;-61
2022/01/30 01:51:15;;;;;;;5.60;2.05;;;5.50;99.90;;;;;;5062259;28;20348;-61
2022/01/30 01:53:42;;;;;;;8.77;2.20;;;5.50;99.90;;;;;;5061322;28;20090;-60
2022/01/30 01:56:09;;;;;;;4.78;2.30;;;5.50;99.90;;;;;;5062879;28;20144;-60
2022/01/30 01:58:35;;;;;;;7.25;2.28;;;5.40;99.90;;;;;;5061325;28;20088;-58
2022/01/30 02:01:03;;;;;;;6.00;1.63;;;5.40;99.90;;;;;;5062689;28;20087;-60
2022/01/30 02:03:30;;;;;;;5.85;2.33;;;5.40;99.90;;;;;;5060884;28;20048;-60
2022/01/30 02:06:00;;;;;;;6.80;2.05;;;5.40;99.90;;;;;;5063522;28;20044;-60
2022/01/30 02:08:36;;;;;;;8.65;2.20;;;5.40;99.90;;;;;;5049928;28;20084;-60
2022/01/30 02:26:51;;;;;;;5.07;1.60;;;5.20;99.90;;;;;;5060715;28;20075;-61
2022/01/30 02:29:19;;;;;;;3.63;1.50;;;5.10;99.90;;;;;;5058291;28;20270;-60
2022/01/30 02:31:46;;;;;;;5.88;1.70;;;5.10;99.90;;;;;;5051521;28;20098;-61
2022/01/30 02:34:13;;;;;;;3.40;1.60;;;5.00;99.90;;;;;;5051420;28;20079;-61
2022/01/30 02:36:49;;;;;;;5.25;1.50;;;5.00;99.90;;;;;;5049294;28;20504;-60
2022/01/30 02:39:16;;;;;;;4.05;1.30;;;5.00;99.90;;;;;;5063691;28;20127;-60
2022/01/30 02:41:43;;;;;;;4.88;1.70;;;4.90;99.90;;;;;;5051084;28;20161;-61
2022/01/30 02:46:43;;;;;;;2.03;1.20;;;4.90;99.90;;;;;;5064078;28;20044;-60
2022/01/30 02:49:28;;;;;;;3.30;1.45;;;4.90;99.90;;;;;;5061108;28;20087;-60
2022/01/30 02:54:25;;;;;;;5.78;1.50;;;4.80;99.90;;;;;;5056652;28;20128;-60
2022/01/30 02:56:52;;;;;;;4.95;1.38;;;4.80;99.90;;;;;;5064089;28;20048;-60
2022/01/30 02:59:19;;;;;;;4.25;1.50;;;4.70;99.90;;;;;;5060912;28;20137;-59
2022/01/30 03:01:45;;;;;;;3.65;1.15;;;4.60;99.90;;;;;;5064619;28;20095;-60
2022/01/30 03:04:12;;;;;;;4.10;1.30;;;4.60;99.90;;;;;;5063486;28;20121;-60
2022/01/30 03:06:39;;;;;;;3.95;1.60;;;4.60;99.90;;;;;;5064018;28;20124;-60
2022/01/30 03:09:07;;;;;;;5.25;1.70;;;4.50;99.90;;;;;;5045053;28;20445;-60
2022/01/30 03:11:34;;;;;;;5.82;2.00;;;4.40;99.90;;;;;;5044140;28;20084;-60
2022/01/30 03:14:01;;;;;;;5.15;1.30;;;4.40;99.90;;;;;;5057146;28;20072;-60
2022/01/30 03:16:28;;;;;;;5.63;1.50;;;4.30;99.90;;;;;;5063066;28;20087;-59
2022/01/30 03:18:54;;;;;;;2.67;1.17;;;4.30;99.90;;;;;;5062456;28;20044;-59
2022/01/30 03:21:21;;;;;;;3.67;1.60;;;4.30;99.90;;;;;;5064530;28;20127;-60
2022/01/30 03:23:48;;;;;;;4.85;1.77;;;4.30;99.90;;;;;;5063021;28;20084;-60
2022/01/30 03:26:15;;;;;;;3.38;1.30;;;4.30;99.90;;;;;;5064085;28;20076;-59
2022/01/30 03:28:44;;;;;;;3.17;1.13;;;4.30;99.90;;;;;;5048101;28;20080;-59
2022/01/30 03:31:12;;;;;;;2.42;1.10;;;4.20;99.90;;;;;;5060771;28;20500;-59
2022/01/30 03:33:39;;;;;;;3.88;1.60;;;4.10;99.90;;;;;;5054515;28;20479;-59
2022/01/30 03:36:06;;;;;;;4.80;1.40;;;4.10;99.90;;;;;;5058277;28;20136;-59
2022/01/30 03:38:33;;;;;;;2.25;1.10;;;4.10;99.90;;;;;;5053359;28;20091;-60
2022/01/30 03:41:00;;;;;;;4.75;1.20;;;4.10;99.90;;;;;;5063897;28;20517;-59
2022/01/30 03:43:27;;;;;;;4.38;1.98;;;4.00;99.90;;;;;;5062059;28;20143;-60
2022/01/30 03:45:53;;;;;;;3.67;1.23;;;3.90;99.90;;;;;;5062884;28;20520;-60
2022/01/30 03:48:20;;;;;;;3.58;1.13;;;3.80;99.90;;;;;;5062407;28;20132;-59
2022/01/30 03:50:47;;;;;;;2.53;1.20;;;3.70;99.90;;;;;;5062080;28;20463;-59
2022/01/30 03:53:14;;;;;;;4.05;1.20;;;3.70;99.90;;;;;;5063658;28;20095;-59
2022/01/30 03:55:40;;;;;;;4.38;1.40;;;3.70;99.90;;;;;;5047147;28;20167;-59
2022/01/30 03:58:07;;;;;;;3.92;1.40;;;3.70;99.90;;;;;;5056408;28;20144;-59
2022/01/30 04:00:34;;;;;;;3.90;1.20;;;3.60;99.90;;;;;;5063269;28;20068;-59
2022/01/30 04:03:01;;;;;;;4.70;1.45;;;3.50;99.90;;;;;;5063311;28;20493;-59
2022/01/30 04:05:28;;;;;;;5.20;1.42;;;3.50;99.90;;;;;;5051435;28;20049;-59
2022/01/30 04:07:55;;;;;;;2.92;1.15;;;3.50;99.90;;;;;;5056031;28;20429;-59
2022/01/30 04:10:22;;;;;;;3.38;1.13;;;3.50;99.90;;;;;;5040930;28;20524;-59
2022/01/30 04:12:49;;;;;;;3.13;1.48;;;3.40;99.90;;;;;;5060962;28;20147;-59
2022/01/30 04:15:16;;;;;;;4.35;1.52;;;3.40;99.90;;;;;;5061630;28;20092;-57
2022/01/30 04:17:43;;;;;;;2.55;1.23;;;3.30;99.90;;;;;;5063107;28;20049;-59
2022/01/30 04:20:10;;;;;;;5.78;1.58;;;3.30;99.90;;;;;;5045911;28;20453;-60
2022/01/30 04:22:37;;;;;;;2.85;1.05;;;3.30;99.90;;;;;;5046304;28;20132;-59
2022/01/30 04:25:04;;;;;;;2.97;1.45;;;3.20;99.90;;;;;;5062942;28;20135;-59
2022/01/30 04:27:30;;;;;;;3.97;1.45;;;3.20;99.90;;;;;;5061653;28;20084;-61
2022/01/30 04:29:58;;;;;;;3.33;1.13;;;3.10;99.90;;;;;;5048772;28;20471;-60
2022/01/30 04:32:26;;;;;;;4.15;1.27;;;3.10;99.90;;;;;;5044466;28;20626;-58
2022/01/30 04:34:58;;;;;;;3.80;1.25;;;3.10;99.90;;;;;;5062914;28;20112;-59
2022/01/30 04:37:45;;;;;;;2.70;1.38;;;3.10;99.90;;;;;;5055051;28;20056;-59
2022/01/30 04:40:39;;;;;;;2.88;1.10;;;3.20;99.90;;;;;;5062859;28;20053;-59
2022/01/30 05:00:19;;;;;;;1.95;0.90;;;2.90;99.90;;;;;;5031967;28;20539;-59
2022/01/30 05:05:40;;;;;;;3.88;1.77;;;2.80;99.90;;;;;;5065591;28;20060;-57
2022/01/30 05:08:07;;;;;;;1.92;0.95;;;2.80;99.90;;;;;;5064787;28;20569;-59
2022/01/30 05:10:34;;;;;;;2.40;0.98;;;2.80;99.90;;;;;;5063727;28;20041;-58
2022/01/30 05:13:04;;;;;;;2.65;0.82;;;2.80;99.90;;;;;;5064097;28;20127;-59
2022/01/30 05:15:31;;;;;;;4.05;1.55;;;2.80;99.90;;;;;;5065103;28;20133;-61
2022/01/30 05:17:58;;;;;;;3.53;1.27;;;2.70;99.90;;;;;;5060204;28;20076;-59
2022/01/30 05:20:25;;;;;;;3.83;1.58;;;2.70;99.90;;;;;;5062853;28;20152;-59
2022/01/30 05:22:52;;;;;;;2.85;1.38;;;2.70;99.90;;;;;;5048277;28;20128;-59
2022/01/30 05:25:19;;;;;;;2.30;1.35;;;2.60;99.90;;;;;;5066222;28;20475;-59
2022/01/30 05:27:46;;;;;;;3.63;1.33;;;2.60;99.90;;;;;;5056874;28;20849;-59
2022/01/30 05:30:13;;;;;;;1.70;0.90;;;2.60;99.90;;;;;;5043506;28;20136;-59
2022/01/30 05:32:40;;;;;;;2.35;1.20;;;2.60;99.90;;;;;;5048824;28;20128;-59
2022/01/30 05:35:07;;;;;;;3.55;1.20;;;2.50;99.90;;;;;;5065687;28;20044;-59
2022/01/30 05:37:40;;;;;;;3.42;1.30;;;2.50;99.90;;;;;;5057439;28;20232;-59
2022/01/30 05:40:08;;;;;;;3.85;0.90;;;2.50;99.90;;;;;;5045789;28;20121;-59
2022/01/30 05:42:37;;;;;;;2.22;0.98;;;2.50;99.90;;;;;;5047384;28;20582;-59
2022/01/30 05:47:41;;;;;;;3.33;1.33;;;2.30;99.90;;;;;;5059910;28;20112;-59
2022/01/30 05:50:08;;;;;;;2.40;0.95;;;2.30;99.90;;;;;;5046689;28;20080;-59
2022/01/30 05:52:35;;;;;;;2.80;1.60;;;2.30;99.90;;;;;;5065699;28;20084;-59
2022/01/30 05:55:02;;;;;;;3.13;1.40;;;2.30;99.90;;;;;;5064174;28;20151;-59
2022/01/30 05:57:29;;;;;;;3.65;1.00;;;2.20;99.90;;;;;;5057057;28;20095;-59
2022/01/30 05:59:56;;;;;;;2.85;1.27;;;2.20;99.90;;;;;;5056865;28;20156;-59
2022/01/30 06:02:22;;;;;;;3.83;1.10;;;2.20;99.90;;;;;;5064265;28;20088;-59
2022/01/30 06:04:49;;;;;;;3.45;1.60;;;2.20;99.90;;;;;;5063154;28;20127;-59
2022/01/30 06:07:21;;;;;;;2.25;1.45;;;2.10;99.90;;;;;;5062344;28;20534;-59
2022/01/30 06:09:47;;;;;;;5.43;1.52;;;2.10;99.90;;;;;;5062115;28;20109;-59
2022/01/30 06:12:14;;;;;;;2.60;1.40;;;2.00;99.90;;;;;;5063865;28;20105;-59
2022/01/30 06:14:45;;;;;;;3.15;1.35;;;2.00;99.90;;;;;;5061015;28;20295;-59
2022/01/30 06:17:12;;;;;;;3.40;1.60;;;2.00;99.90;;;;;;5061350;28;20048;-59
2022/01/30 06:19:40;;;;;;;3.15;1.40;;;2.00;99.90;;;;;;5062322;28;20984;-59
2022/01/30 06:22:06;;;;;;;5.53;1.50;;;2.00;99.90;;;;;;5057771;28;20139;-59
2022/01/30 06:24:33;;;;;;;4.28;1.52;;;2.00;99.90;;;;;;5048366;28;20441;-59
2022/01/30 06:27:00;;;;;;;3.97;1.50;;;2.00;99.90;;;;;;5062668;28;20075;-59
2022/01/30 06:29:27;;;;;;;4.65;1.80;;;1.90;99.90;;;;;;5060158;28;20052;-60
2022/01/30 06:31:53;;;;;;;2.90;1.30;;;1.90;99.90;;;;;;5061725;28;20076;-59
2022/01/30 06:34:21;;;;;;;3.00;1.33;;;1.90;99.90;;;;;;5061478;28;20139;-59
2022/01/30 06:36:48;;;;;;;2.75;1.42;;;1.90;99.90;;;;;;5061335;28;20465;-59
2022/01/30 06:39:14;;;;;;;3.55;1.00;;;1.90;99.90;;;;;;5043485;28;20057;-59
2022/01/30 06:41:41;;;;;;;2.95;1.20;;;1.80;99.90;;;;;;5043805;28;20448;-59
2022/01/30 06:44:08;;;;;;;3.40;1.25;;;1.80;99.90;;;;;;5059155;28;20359;-59
2022/01/30 06:46:35;;;;;;;4.47;1.02;;;1.80;99.90;;;;;;5060419;28;20048;-59
2022/01/30 06:49:02;;;;;;;2.50;1.17;;;1.80;99.90;;;;;;5049501;28;20057;-59
2022/01/30 06:51:29;;;;;;;3.33;1.40;;;1.80;99.90;;;;;;5043444;28;20106;-59
2022/01/30 06:53:55;;;;;;;2.42;1.02;;;1.80;99.90;;;;;;5058377;28;20135;-59
2022/01/30 06:56:22;;;;;;;2.88;1.25;;;1.80;99.90;;;;;;5058170;28;20087;-59
2022/01/30 06:58:51;;;;;;;2.55;1.08;;;1.80;99.90;;;;;;5043254;28;20163;-59
2022/01/30 07:01:18;;;;;;;3.22;1.23;;;1.70;99.90;;;;;;5042298;28;20106;-59
2022/01/30 07:03:45;;;;;;;3.20;1.63;;;1.70;99.90;;;;;;5055875;28;20056;-59
2022/01/30 07:06:12;;;;;;;3.05;1.08;;;1.60;99.90;;;;;;5062194;28;20079;-59
2022/01/30 07:08:39;;;;;;;3.90;1.48;;;1.60;99.90;;;;;;5051360;28;20982;-59
2022/01/30 07:11:06;;;;;;;2.78;1.20;;;1.60;99.90;;;;;;5062751;28;20080;-59
2022/01/30 07:13:32;;;;;;;2.15;0.85;;;1.60;99.90;;;;;;5059941;28;20155;-59
2022/01/30 07:15:59;;;;;;;2.72;0.88;;;1.60;99.90;;;;;;5060962;28;20084;-59
2022/01/30 07:18:26;;;;;;;1.88;0.93;;;1.50;99.90;;;;;;5051180;28;20072;-59
2022/01/30 07:20:53;;;;;;;2.30;1.15;;;1.60;99.90;;;;;;5042031;28;20084;-60
2022/01/30 07:23:20;;;;;;;2.83;1.10;;;1.60;99.90;;;;;;5051690;28;20084;-59
2022/01/30 07:25:46;;;;;;;4.78;1.33;;;1.60;99.90;;;;;;5062091;28;20124;-59
2022/01/30 07:28:13;;;;;;;3.15;1.02;;;1.50;99.90;;;;;;5060070;28;20084;-60
2022/01/30 07:30:40;;;;;;;3.22;1.10;;;1.50;99.90;;;;;;5055894;28;20045;-58
2022/01/30 07:33:07;;;;;;;3.17;1.15;;;1.60;99.90;;;;;;5050640;28;20084;-58
2022/01/30 07:35:36;;;;;;;2.53;1.00;;;1.60;99.90;;;;;;5045240;28;20475;-58
2022/01/30 07:38:04;;;;;;;3.53;1.27;;;1.60;99.90;;;;;;5053828;28;20124;-59
2022/01/30 07:40:34;;;;;;;2.67;1.20;;;1.60;99.90;;;;;;5062032;28;20048;-58
2022/01/30 07:43:00;;;;;;;2.35;1.00;;;1.60;99.90;;;;;;5053843;28;20095;-58
2022/01/30 07:45:27;;;;;;;3.95;1.27;;;1.60;99.90;;;;;;5056832;28;20147;-58
2022/01/30 07:47:54;;;;;;;3.33;1.40;;;1.60;99.90;;;;;;5056793;28;20133;-59
2022/01/30 07:50:21;;;;;;;2.92;1.13;;;1.70;99.90;;;;;;5061596;28;20041;-59
2022/01/30 07:52:48;;;;;;;2.40;1.20;;;1.60;99.90;;;;;;5058582;28;20079;-58
2022/01/30 07:55:14;;;;;;;2.13;1.20;;;1.60;99.90;;;;;;5056630;28;20083;-58
2022/01/30 07:57:42;;;;;;;5.88;1.83;;;1.60;99.90;;;;;;5060430;28;20052;-59
2022/01/30 08:00:09;;;;;;;2.47;1.23;;;1.60;99.90;;;;;;5056742;28;20141;-58
2022/01/30 08:02:36;;;;;;;2.42;1.23;;;1.60;99.90;;;;;;5059609;28;20251;-58
2022/01/30 08:05:03;;;;;;;3.25;1.60;;;1.60;99.90;;;;;;5060640;28;20156;-59
2022/01/30 08:07:31;;;;;;;7.32;1.60;;;1.60;99.90;;;;;;5060323;28;20094;-58
2022/01/30 08:09:57;;;;;;;4.63;1.92;;;1.60;99.90;;;;;;5060099;28;20068;-58
2022/01/30 08:12:24;;;;;;;4.38;1.48;;;1.60;99.90;;;;;;5050185;28;20085;-58
2022/01/30 08:14:51;;;;;;;2.30;0.93;;;1.70;99.90;;;;;;5053834;28;20088;-59
2022/01/30 08:17:22;;;;;;;2.10;1.30;;;1.70;99.90;;;;;;5060961;28;20088;-59
2022/01/30 08:19:49;;;;;;;3.20;1.13;;;1.70;99.90;;;;;;5064908;28;20091;-59
2022/01/30 08:22:16;;;;;;;1.25;0.70;;;1.70;99.90;;;;;;5056315;28;20184;-59
2022/01/30 08:24:43;;;;;;;4.07;1.90;;;1.80;99.90;;;;;;5063303;28;20135;-59
2022/01/30 08:27:09;;;;;;;2.95;1.30;;;1.80;99.90;;;;;;5058040;28;20087;-59
2022/01/30 08:29:37;;;;;;;3.05;1.30;;;1.80;99.90;;;;;;5063135;28;20044;-59
2022/01/30 08:32:05;;;;;;;5.15;1.45;;;1.80;99.90;;;;;;5062055;28;20330;-59
2022/01/30 08:34:31;;;;;;;2.05;1.10;;;1.80;99.90;;;;;;5059699;28;20079;-58
2022/01/30 08:36:58;;;;;;;2.35;0.98;;;1.90;99.90;;;;;;5063436;28;20101;-59
2022/01/30 08:39:25;;;;;;;4.07;1.67;;;1.90;99.90;;;;;;5061415;28;20091;-59
2022/01/30 08:41:52;;;;;;;3.92;1.60;;;2.00;99.90;;;;;;5060910;28;20128;-59
2022/01/30 08:44:18;;;;;;;3.05;1.50;;;2.00;99.90;;;;;;5058929;28;20135;-58
2022/01/30 08:46:45;;;;;;;3.67;1.50;;;2.00;99.90;;;;;;5068204;28;20408;-58
2022/01/30 08:49:14;;;;;;;4.07;1.60;;;2.10;99.90;;;;;;5053364;28;20107;-58
2022/01/30 08:51:40;;;;;;;2.80;1.58;;;2.10;99.90;;;;;;5055564;28;20098;-59
2022/01/30 08:54:07;;;;;;;2.17;1.10;;;2.20;99.90;;;;;;5054345;28;20128;-59
2022/01/30 08:56:34;;;;;;;2.75;1.05;;;2.20;99.90;;;;;;5055618;28;20392;-59
2022/01/30 08:59:01;;;;;;;3.08;1.17;;;2.30;99.90;;;;;;5052388;28;20151;-60
2022/01/30 09:01:32;;;;;;;4.28;1.30;;;2.30;99.90;;;;;;5063963;28;20095;-59
2022/01/30 09:03:59;;;;;;;1.77;1.00;;;2.40;99.90;;;;;;5063827;28;20094;-59
2022/01/30 09:06:26;;;;;;;2.75;1.10;;;2.40;99.90;;;;;;5064865;28;20143;-60
2022/01/30 09:08:53;;;;;;;4.35;1.40;;;2.40;99.90;;;;;;5064140;28;20095;-60
2022/01/30 09:11:20;;;;;;;2.83;1.20;;;2.40;99.90;;;;;;5054788;28;20482;-60
2022/01/30 09:13:46;;;;;;;1.77;1.15;;;2.50;99.90;;;;;;5052655;28;20167;-60
2022/01/30 09:16:13;;;;;;;4.63;1.38;;;2.60;99.90;;;;;;5042634;28;20530;-59
2022/01/30 09:18:40;;;;;;;3.53;1.02;;;2.60;99.90;;;;;;5047939;28;20611;-60
2022/01/30 09:21:08;;;;;;;3.95;1.33;;;2.60;99.90;;;;;;5050127;28;20097;-60
2022/01/30 09:23:34;;;;;;;4.25;1.23;;;2.70;99.90;;;;;;5064164;28;20044;-59
2022/01/30 09:26:01;;;;;;;1.90;0.85;;;2.80;99.90;;;;;;5059267;28;20533;-60
2022/01/30 09:28:28;;;;;;;2.55;1.30;;;2.80;99.90;;;;;;5059252;28;20067;-59
2022/01/30 09:30:55;;;;;;;2.33;1.13;;;2.90;99.90;;;;;;5061657;28;20052;-60
2022/01/30 09:33:22;;;;;;;2.65;1.35;;;2.90;99.90;;;;;;5060582;28;20097;-60
2022/01/30 09:35:48;;;;;;;3.13;1.00;;;3.00;99.90;;;;;;5064149;28;20052;-60
2022/01/30 09:38:15;;;;;;;2.47;1.00;;;3.10;99.90;;;;;;5062330;28;20460;-60
2022/01/30 09:40:42;;;;;;;4.63;1.33;;;3.10;99.90;;;;;;5055952;28;20480;-60
2022/01/30 09:43:09;;;;;;;5.97;1.20;;;3.20;99.90;;;;;;5051941;28;20563;-60
2022/01/30 09:45:36;;;;;;;3.08;1.50;;;3.20;99.90;;;;;;5063417;28;20177;-61
2022/01/30 09:48:04;;;;;;;3.95;1.52;;;3.30;99.90;;;;;;5062895;28;20053;-60
2022/01/30 09:50:30;;;;;;;3.17;1.08;;;3.40;99.90;;;;;;5045877;28;20410;-60
2022/01/30 09:52:57;;;;;;;2.17;1.20;;;3.50;99.90;;;;;;5045208;28;20496;-59
2022/01/30 09:55:24;;;;;;;4.20;1.70;;;3.60;99.90;;;;;;5063244;28;20103;-60
2022/01/30 09:57:52;;;;;;;4.20;1.45;;;3.70;99.90;;;;;;5060389;28;20823;-60
2022/01/30 10:00:18;;;;;;;5.03;1.50;;;3.80;99.90;;;;;;5062312;28;20163;-60
2022/01/30 10:02:45;;;;;;;3.33;1.40;;;3.90;99.90;;;;;;5062657;28;20048;-59
2022/01/30 10:05:13;;;;;;;4.20;1.45;;;3.90;99.90;;;;;;5045566;28;20045;-60
2022/01/30 10:07:45;;;;;;;4.60;1.27;;;4.00;99.90;;;;;;5059815;28;20074;-60
2022/01/30 10:10:13;;;;;;;4.90;1.73;;;4.10;99.90;;;;;;5045343;28;20068;-60
2022/01/30 10:13:04;;;;;;;5.00;1.80;;;4.20;99.90;;;;;;5062987;28;20056;-58
2022/01/30 10:15:31;;;;;;;3.95;1.38;;;4.20;99.90;;;;;;5062097;28;20071;-60
2022/01/30 10:18:00;;;;;;;2.75;1.27;;;4.30;99.90;;;;;;5050950;28;20140;-59
2022/01/30 10:20:36;;;;;;;3.58;1.30;;;4.40;99.90;;;;;;5041504;28;20048;-60
2022/01/30 10:23:08;;;;;;;3.78;1.15;;;4.50;99.90;;;;;;5054633;28;20135;-60
2022/01/30 10:25:49;;;;;;;3.97;1.55;;;4.50;99.90;;;;;;5063063;28;20289;-60
2022/01/30 10:28:30;;;;;;;3.40;2.00;;;4.60;99.90;;;;;;5059769;28;20127;-59
2022/01/30 10:31:02;;;;;;;3.63;1.90;;;4.60;99.90;;;;;;5060580;28;20969;-59
2022/01/30 10:33:42;;;;;;;6.13;2.00;;;4.70;99.90;;;;;;5060611;28;20131;-60
2022/01/30 10:36:09;;;;;;;3.75;1.60;;;4.80;99.90;;;;;;5051560;28;20551;-61
2022/01/30 10:38:39;;;;;;;3.70;1.55;;;4.90;99.90;;;;;;5054833;28;20063;-61
2022/01/30 10:41:12;;;;;;;5.80;2.08;;;4.90;99.90;;;;;;5052519;28;20558;-60
2022/01/30 10:43:58;;;;;;;4.32;1.58;;;4.90;99.90;;;;;;5055644;28;20567;-60
2022/01/30 10:46:28;;;;;;;3.40;1.38;;;5.00;99.90;;;;;;5055442;28;20529;-59
2022/01/30 10:49:00;;;;;;;3.38;1.40;;;5.00;99.90;;;;;;5062190;28;20071;-60
2022/01/30 10:51:31;;;;;;;4.68;2.28;;;5.10;99.90;;;;;;5062566;28;20045;-61
2022/01/30 10:54:09;;;;;;;3.25;1.38;;;5.10;99.90;;;;;;5060737;28;20132;-61
2022/01/30 10:56:36;;;;;;;4.70;1.67;;;5.20;99.90;;;;;;5062069;28;20139;-60
2022/01/30 10:59:11;;;;;;;6.30;1.48;;;5.20;99.90;;;;;;5057074;28;20457;-60
2022/01/30 11:01:39;;;;;;;5.88;2.72;;;5.30;99.90;;;;;;5042457;28;20052;-60
2022/01/30 11:04:07;;;;;;;5.80;1.98;;;5.30;99.90;;;;;;5054224;28;20052;-60
2022/01/30 11:06:38;;;;;;;4.45;1.58;;;5.30;99.90;;;;;;5061917;28;20059;-60
2022/01/30 11:09:11;;;;;;;5.15;1.80;;;5.40;99.90;;;;;;5057058;28;20048;-59
2022/01/30 11:11:46;;;;;;;5.95;2.20;;;5.40;99.90;;;;;;5032688;28;20555;-59
2022/01/30 11:14:16;;;;;;;6.63;2.30;;;5.50;99.90;;;;;;5053347;28;20533;-59
2022/01/30 11:16:57;;;;;;;4.20;2.17;;;5.50;99.90;;;;;;5040566;28;20096;-59
2022/01/30 11:19:26;;;;;;;5.18;2.50;;;5.60;99.90;;;;;;5059315;28;20056;-59
2022/01/30 11:21:56;;;;;;;6.82;2.50;;;5.60;99.90;;;;;;5061943;28;20113;-59
2022/01/30 11:24:24;;;;;;;5.47;1.83;;;5.70;99.90;;;;;;5061446;28;20193;-59
2022/01/30 11:26:51;;;;;;;6.32;2.17;;;5.80;99.90;;;;;;5061886;28;20091;-59
2022/01/30 11:29:21;;;;;;;5.20;1.95;;;5.90;99.90;;;;;;5059271;28;20131;-59
2022/01/30 11:31:48;;;;;;;5.45;1.90;;;5.90;99.90;;;;;;5044532;28;20153;-59
2022/01/30 11:34:15;;;;;;;4.72;1.92;;;6.00;99.90;;;;;;5060489;28;20537;-59
2022/01/30 11:36:48;;;;;;;6.88;2.30;;;6.00;99.90;;;;;;5060206;28;20081;-59
2022/01/30 11:39:20;;;;;;;3.17;1.58;;;6.10;99.90;;;;;;5059447;28;20052;-59
2022/01/30 11:42:18;;;;;;;3.90;1.30;;;6.30;99.90;;;;;;5061636;28;20533;-59
2022/01/30 11:44:46;;;;;;;4.10;1.80;;;6.40;99.90;;;;;;5058946;28;20044;-59
2022/01/30 11:47:14;;;;;;;7.22;2.00;;;6.40;99.90;;;;;;5060498;28;20095;-59
2022/01/30 11:50:00;;;;;;;6.10;1.90;;;6.50;99.90;;;;;;5060910;28;20048;-59
2022/01/30 11:52:51;;;;;;;4.65;1.20;;;6.60;99.90;;;;;;5061198;28;20483;-59
2022/01/30 11:55:37;;;;;;;8.07;2.35;;;6.70;99.90;;;;;;5058159;28;20127;-59
2022/01/30 11:58:04;;;;;;;6.25;2.33;;;6.70;99.90;;;;;;5059280;28;20060;-59
2022/01/30 12:00:40;;;;;;;4.85;1.90;;;6.80;99.90;;;;;;5060340;28;20152;-58
2022/01/30 12:03:51;;;;;;;6.68;2.00;;;7.00;99.90;;;;;;5059832;28;20124;-59
2022/01/30 12:06:20;;;;;;;7.38;1.92;;;7.30;99.90;;;;;;5039456;28;20412;-60
2022/01/30 12:08:51;;;;;;;4.93;2.05;;;7.50;99.90;;;;;;5058411;28;20110;-60
2022/01/30 12:11:36;;;;;;;5.85;1.98;;;7.60;99.90;;;;;;5061708;28;20053;-58
2022/01/30 12:14:04;;;;;;;4.20;1.63;;;7.80;99.90;;;;;;5059060;28;20523;-58
2022/01/30 12:16:48;;;;;;;6.90;2.17;;;8.00;99.90;;;;;;5060706;28;20074;-57
2022/01/30 12:19:19;;;;;;;3.45;1.65;;;8.20;99.90;;;;;;5060400;28;20052;-59
2022/01/30 12:21:45;;;;;;;2.85;1.58;;;8.40;99.90;;;;;;5060198;28;20136;-59
2022/01/30 12:24:22;;;;;;;4.45;2.15;;;8.70;99.90;;;;;;5059108;28;20442;-59
2022/01/30 12:26:53;;;;;;;4.38;2.17;;;8.90;99.90;;;;;;5061318;28;20267;-58
2022/01/30 12:29:36;;;;;;;3.75;1.83;;;8.90;99.90;;;;;;5058591;28;20080;-59
2022/01/30 12:32:20;;;;;;;6.68;2.28;;;9.20;99.90;;;;;;5060023;28;20607;-59
2022/01/30 12:34:54;;;;;;;2.83;1.45;;;9.40;99.90;;;;;;5059100;28;20380;-58
2022/01/30 12:37:32;;;;;;;2.97;1.60;;;9.60;99.90;;;;;;5061529;28;20850;-59
2022/01/30 12:40:15;;;;;;;3.97;1.85;;;9.70;99.90;;;;;;5060766;28;20056;-60
2022/01/30 12:42:42;;;;;;;3.83;1.65;;;9.80;99.90;;;;;;5060052;28;20475;-59
2022/01/30 12:45:09;;;;;;;4.88;1.92;;;9.90;99.90;;;;;;5058889;28;20106;-59
2022/01/30 12:47:52;;;;;;;2.08;1.00;;;10.10;99.90;;;;;;5061511;28;20083;-59
2022/01/30 12:50:19;;;;;;;;;;;10.50;99.90;;;;;;5061498;28;20102;-58
2022/01/30 12:52:52;;;;;;;3.75;1.67;;;10.80;99.90;;;;;;5060899;28;20027;-59
2022/01/30 12:55:19;;;;;;;2.20;1.00;;;11.00;99.90;;;;;;5059627;28;20095;-59
2022/01/30 12:57:47;;;;;;;4.90;1.52;;;11.20;99.90;;;;;;5060534;28;20087;-59
2022/01/30 13:00:16;;;;;;;4.05;1.48;;;11.50;99.90;;;;;;5059374;28;20084;-59
2022/01/30 13:02:58;;;;;;;3.33;1.38;;;11.80;99.90;;;;;;5059463;28;20052;-59
2022/01/30 13:05:27;;;;;;;3.40;1.40;;;12.00;99.90;;;;;;5063861;28;20131;-58
2022/01/30 13:07:55;;;;;;;4.05;1.60;;;12.10;99.90;;;;;;5063128;28;20083;-59
2022/01/30 13:10:22;;;;;;;3.38;1.40;;;12.00;99.90;;;;;;5063989;28;20143;-59
2022/01/30 13:12:49;;;;;;;4.85;1.70;;;12.10;99.90;;;;;;5062973;28;20407;-59
2022/01/30 13:15:18;;;;;;;3.97;1.92;;;12.20;99.90;;;;;;5062468;28;20151;-59
2022/01/30 13:17:45;;;;;;;3.50;1.05;;;12.20;99.90;;;;;;5062480;28;20048;-60
2022/01/30 13:20:12;;;;;;;3.80;1.45;;;12.20;99.90;;;;;;5064059;28;20496;-59
2022/01/30 13:22:41;;;;;;;4.45;2.03;;;12.30;99.90;;;;;;5064250;28;20087;-59
2022/01/30 13:25:13;;;;;;;3.13;1.48;;;12.10;99.90;;;;;;5062871;28;20059;-59
2022/01/30 13:27:41;;;;;;;4.13;1.70;;;12.00;99.90;;;;;;5064075;28;20091;-59
2022/01/30 13:30:09;;;;;;;4.45;1.65;;;12.20;99.90;;;;;;5060649;28;20255;-62
2022/01/30 13:32:39;;;;;;;3.53;1.30;;;12.20;99.90;;;;;;5063922;28;20068;-59
2022/01/30 13:35:12;;;;;;;4.78;1.65;;;12.40;99.90;;;;;;5063476;28;20127;-59
2022/01/30 13:37:41;;;;;;;4.25;1.73;;;12.20;99.10;;;;;;5063680;28;20135;-60
2022/01/30 13:40:14;;;;;;;5.57;2.03;;;12.00;99.20;;;;;;5064329;28;20141;-59
2022/01/30 13:47:54;;;;;;;3.63;2.10;;;11.80;99.90;;;;;;5063592;28;19974;-59
2022/01/30 13:50:24;;;;;;;4.47;1.90;;;11.90;99.90;;;;;;5062724;28;20139;-59
2022/01/30 13:53:28;;;;;;;3.25;1.70;;;12.10;99.90;;;;;;5063875;28;20111;-59
2022/01/30 13:56:12;;;;;;;4.72;1.60;;;12.30;99.70;;;;;;5063825;28;20098;-59
2022/01/30 13:58:50;;;;;;;5.30;1.60;;;12.50;99.40;;;;;;5061975;28;20170;-59
2022/01/30 14:01:26;;;;;;;4.13;1.70;;;12.60;99.80;;;;;;5062590;28;20163;-59
2022/01/30 14:04:11;;;;;;;3.35;1.33;;;12.50;99.90;;;;;;5063221;28;20044;-59
2022/01/30 14:06:39;;;;;;;3.65;1.33;;;12.40;99.90;;;;;;5063275;28;20127;-59
2022/01/30 14:09:10;;;;;;;4.60;1.65;;;12.40;99.90;;;;;;5062846;28;20056;-59
2022/01/30 14:11:38;;;;;;;5.05;2.15;;;12.40;99.20;;;;;;5063532;28;20048;-59